NSZ1YP EKCH-LEBL
Flight info
| Callsign | NSZ1YP |
|---|---|
| Flight time | N/A |
| Altitude | 36000 |
| Route | NEXEN T503 GIMRU DCT KUXOD N850 MICOS DCT SAS DCT BOMBI DCT GIGET DCT ABUKA DCT KRH DCT NATOR/N0455F350 DCT LUTIX DCT BENOT DCT NEMOS DCT GEVEA DCT INCUS DCT BALSI DCT ETIDO DCT KURIR DCT PEQEF DCT NAKIS DCT BOLSA DCT PPG DCT ALBER |
| Aircraft | B738/M-SDE2E3FGHIRWXY/LB1 |
Departure
| Time | 2026-05-06 19:41 |
|---|---|
| Airport | Copenhagen Kastrup Airport (EKCH) |
Arrival
| Time | N/A |
|---|---|
| Airport | Josep Tarradellas Barcelona-El Prat Airport (LEBL) |
| Time | Latitude | Longitude | Altitude | Speed | Heading |
|---|---|---|---|---|---|
| 2026-05-06 19:01 | 55.62815 | 12.64217 | 23 ft | 0 kts | 123° |
| 2026-05-06 19:25 | 55.62820 | 12.64202 | 25 ft | 3 kts | 123° |
| 2026-05-06 19:25 | 55.62831 | 12.64172 | 24 ft | 3 kts | 123° |
| 2026-05-06 19:25 | 55.62841 | 12.64142 | 28 ft | 3 kts | 108° |
| 2026-05-06 19:25 | 55.62843 | 12.64111 | 28 ft | 3 kts | 68° |
| 2026-05-06 19:26 | 55.62836 | 12.64082 | 28 ft | 3 kts | 66° |
| 2026-05-06 19:26 | 55.62828 | 12.64049 | 24 ft | 3 kts | 66° |
| 2026-05-06 19:26 | 55.62821 | 12.64018 | 26 ft | 3 kts | 91° |
| 2026-05-06 19:26 | 55.62824 | 12.63985 | 26 ft | 3 kts | 104° |
| 2026-05-06 19:27 | 55.62829 | 12.63950 | 26 ft | 3 kts | 104° |
| 2026-05-06 19:27 | 55.62834 | 12.63915 | 27 ft | 3 kts | 104° |
| 2026-05-06 19:27 | 55.62839 | 12.63883 | 27 ft | 2 kts | 104° |
| 2026-05-06 19:27 | 55.62840 | 12.63875 | 27 ft | 0 kts | 104° |
| 2026-05-06 19:28 | 55.62841 | 12.63870 | 26 ft | 1 kts | 104° |
| 2026-05-06 19:28 | 55.62842 | 12.63866 | 25 ft | 0 kts | 104° |
| 2026-05-06 19:33 | 55.62840 | 12.63878 | 27 ft | 5 kts | 105° |
| 2026-05-06 19:33 | 55.62834 | 12.63909 | 27 ft | 4 kts | 111° |
| 2026-05-06 19:33 | 55.62811 | 12.63946 | 25 ft | 5 kts | 161° |
| 2026-05-06 19:33 | 55.62776 | 12.63935 | 23 ft | 5 kts | 204° |
| 2026-05-06 19:34 | 55.62727 | 12.63899 | 23 ft | 10 kts | 205° |
| 2026-05-06 19:34 | 55.62662 | 12.63823 | 23 ft | 14 kts | 211° |
| 2026-05-06 19:34 | 55.62533 | 12.63776 | 24 ft | 23 kts | 169° |
| 2026-05-06 19:34 | 55.62402 | 12.63955 | 21 ft | 24 kts | 122° |
| 2026-05-06 19:35 | 55.62316 | 12.64196 | 19 ft | 21 kts | 123° |
| 2026-05-06 19:35 | 55.62263 | 12.64341 | 22 ft | 9 kts | 124° |
| 2026-05-06 19:35 | 55.62203 | 12.64347 | 20 ft | 12 kts | 202° |
| 2026-05-06 19:35 | 55.62101 | 12.64261 | 24 ft | 22 kts | 206° |
| 2026-05-06 19:36 | 55.61942 | 12.64129 | 24 ft | 24 kts | 208° |
| 2026-05-06 19:36 | 55.61831 | 12.64072 | 23 ft | 12 kts | 175° |
| 2026-05-06 19:36 | 55.61794 | 12.64073 | 25 ft | 0 kts | 179° |
| 2026-05-06 19:36 | 55.61774 | 12.64078 | 23 ft | 4 kts | 173° |
| 2026-05-06 19:37 | 55.61754 | 12.64081 | 27 ft | 0 kts | 175° |
| 2026-05-06 19:40 | 55.61753 | 12.64081 | 23 ft | 2 kts | 175° |
| 2026-05-06 19:40 | 55.61718 | 12.64087 | 24 ft | 9 kts | 175° |
| 2026-05-06 19:40 | 55.61614 | 12.64054 | 28 ft | 22 kts | 216° |
| 2026-05-06 19:40 | 55.61523 | 12.63913 | 29 ft | 29 kts | 221° |
| 2026-05-06 19:41 | 55.61331 | 12.63616 | 28 ft | 59 kts | 220° |
| 2026-05-06 19:41 | 55.60822 | 12.62834 | 23 ft | 132 kts | 220° |
| 2026-05-06 19:41 | 55.59702 | 12.61087 | 466 ft | 175 kts | 222° |
| 2026-05-06 19:41 | 55.58799 | 12.59619 | 1426 ft | 177 kts | 217° |
| 2026-05-06 19:42 | 55.57846 | 12.58192 | 2193 ft | 188 kts | 215° |
| 2026-05-06 19:42 | 55.57143 | 12.57158 | 2409 ft | 207 kts | 216° |
| 2026-05-06 19:42 | 55.55944 | 12.55523 | 2616 ft | 230 kts | 211° |
| 2026-05-06 19:42 | 55.54594 | 12.53867 | 3049 ft | 240 kts | 211° |
| 2026-05-06 19:43 | 55.53197 | 12.52174 | 3683 ft | 246 kts | 212° |
| 2026-05-06 19:43 | 55.51739 | 12.50407 | 4166 ft | 263 kts | 212° |
| 2026-05-06 19:43 | 55.50206 | 12.48544 | 4881 ft | 271 kts | 213° |
| 2026-05-06 19:43 | 55.48132 | 12.46017 | 5937 ft | 276 kts | 213° |
| 2026-05-06 19:44 | 55.47060 | 12.44688 | 6455 ft | 280 kts | 214° |
| 2026-05-06 19:44 | 55.45476 | 12.42669 | 7250 ft | 280 kts | 216° |
| 2026-05-06 19:44 | 55.43885 | 12.40624 | 7984 ft | 287 kts | 216° |
| 2026-05-06 19:44 | 55.42277 | 12.38557 | 8850 ft | 284 kts | 216° |
| 2026-05-06 19:45 | 55.40703 | 12.36535 | 9775 ft | 283 kts | 216° |
| 2026-05-06 19:45 | 55.39098 | 12.34478 | 10440 ft | 290 kts | 216° |
| 2026-05-06 19:45 | 55.37406 | 12.32312 | 10620 ft | 313 kts | 217° |
| 2026-05-06 19:45 | 55.35582 | 12.29980 | 10804 ft | 335 kts | 217° |
| 2026-05-06 19:46 | 55.33651 | 12.27517 | 11099 ft | 350 kts | 217° |
| 2026-05-06 19:46 | 55.31658 | 12.24981 | 11725 ft | 354 kts | 217° |
| 2026-05-06 19:46 | 55.29650 | 12.22429 | 12462 ft | 358 kts | 217° |
| 2026-05-06 19:46 | 55.27628 | 12.19864 | 13145 ft | 361 kts | 217° |
| 2026-05-06 19:47 | 55.25615 | 12.17314 | 13858 ft | 363 kts | 217° |
| 2026-05-06 19:47 | 55.23556 | 12.14710 | 14467 ft | 366 kts | 217° |
| 2026-05-06 19:47 | 55.21483 | 12.12091 | 15068 ft | 369 kts | 217° |
| 2026-05-06 19:47 | 55.19391 | 12.09451 | 15701 ft | 372 kts | 217° |
| 2026-05-06 19:48 | 55.17290 | 12.06803 | 16340 ft | 373 kts | 217° |
| 2026-05-06 19:48 | 55.15186 | 12.04156 | 17034 ft | 373 kts | 217° |
| 2026-05-06 19:48 | 55.13071 | 12.01498 | 17686 ft | 375 kts | 217° |
| 2026-05-06 19:48 | 55.10942 | 11.98825 | 18278 ft | 378 kts | 217° |
| 2026-05-06 19:49 | 55.08804 | 11.96144 | 18787 ft | 380 kts | 217° |
| 2026-05-06 19:49 | 55.06645 | 11.93442 | 19306 ft | 383 kts | 217° |
| 2026-05-06 19:49 | 55.04478 | 11.90732 | 19800 ft | 385 kts | 217° |
| 2026-05-06 19:49 | 55.02317 | 11.88034 | 20286 ft | 388 kts | 217° |
| 2026-05-06 19:50 | 55.00112 | 11.85284 | 20777 ft | 391 kts | 217° |
| 2026-05-06 19:50 | 54.97897 | 11.82526 | 21249 ft | 393 kts | 217° |
| 2026-05-06 19:50 | 54.95660 | 11.79745 | 21710 ft | 396 kts | 217° |
| 2026-05-06 19:50 | 54.93406 | 11.76946 | 22110 ft | 400 kts | 217° |
| 2026-05-06 19:51 | 54.91132 | 11.74126 | 22506 ft | 404 kts | 217° |
| 2026-05-06 19:51 | 54.88833 | 11.71279 | 22967 ft | 406 kts | 217° |
| 2026-05-06 19:51 | 54.86524 | 11.68426 | 23416 ft | 409 kts | 217° |
| 2026-05-06 19:51 | 54.84198 | 11.65554 | 23783 ft | 411 kts | 217° |
| 2026-05-06 19:52 | 54.81896 | 11.62717 | 24150 ft | 413 kts | 217° |
| 2026-05-06 19:52 | 54.79545 | 11.59823 | 24523 ft | 415 kts | 217° |
| 2026-05-06 19:52 | 54.77193 | 11.56932 | 24886 ft | 416 kts | 216° |
| 2026-05-06 19:52 | 54.74825 | 11.54025 | 25235 ft | 418 kts | 216° |
| 2026-05-06 19:53 | 54.72441 | 11.51104 | 25584 ft | 420 kts | 216° |
| 2026-05-06 19:53 | 54.70053 | 11.48181 | 25860 ft | 423 kts | 216° |
| 2026-05-06 19:53 | 54.67637 | 11.45229 | 26161 ft | 426 kts | 216° |
| 2026-05-06 19:53 | 54.65220 | 11.42279 | 26507 ft | 427 kts | 216° |
| 2026-05-06 19:54 | 54.62789 | 11.39318 | 26839 ft | 429 kts | 216° |
| 2026-05-06 19:54 | 54.60373 | 11.36378 | 27123 ft | 431 kts | 216° |
| 2026-05-06 19:54 | 54.57928 | 11.33408 | 27520 ft | 430 kts | 216° |
| 2026-05-06 19:54 | 54.55476 | 11.30434 | 27865 ft | 431 kts | 215° |
| 2026-05-06 19:55 | 54.53011 | 11.27448 | 28115 ft | 434 kts | 215° |
| 2026-05-06 19:55 | 54.50542 | 11.24462 | 28375 ft | 436 kts | 215° |
| 2026-05-06 19:55 | 54.48051 | 11.21453 | 28634 ft | 438 kts | 215° |
| 2026-05-06 19:55 | 54.45538 | 11.18423 | 28734 ft | 444 kts | 215° |
| 2026-05-06 19:56 | 54.43012 | 11.15382 | 29038 ft | 444 kts | 215° |
| 2026-05-06 19:56 | 54.40493 | 11.12353 | 29572 ft | 439 kts | 215° |
| 2026-05-06 19:56 | 54.38003 | 11.09363 | 30049 ft | 437 kts | 215° |
| 2026-05-06 19:56 | 54.35544 | 11.06414 | 30334 ft | 437 kts | 215° |
| 2026-05-06 19:57 | 54.33053 | 11.03433 | 30580 ft | 438 kts | 215° |
| 2026-05-06 19:57 | 54.30465 | 11.00675 | 30843 ft | 438 kts | 207° |
| 2026-05-06 19:57 | 54.27674 | 10.98638 | 31155 ft | 437 kts | 199° |
| 2026-05-06 19:57 | 54.24785 | 10.97020 | 31483 ft | 436 kts | 199° |
| 2026-05-06 19:58 | 54.21895 | 10.95419 | 31624 ft | 439 kts | 199° |
| 2026-05-06 19:58 | 54.18979 | 10.93799 | 31792 ft | 441 kts | 199° |
| 2026-05-06 19:58 | 54.16064 | 10.92169 | 32141 ft | 439 kts | 199° |
| 2026-05-06 19:58 | 54.13209 | 10.90563 | 32526 ft | 436 kts | 199° |
| 2026-05-06 19:59 | 54.10341 | 10.88943 | 32837 ft | 435 kts | 199° |
| 2026-05-06 19:59 | 54.07463 | 10.87313 | 33064 ft | 435 kts | 200° |
| 2026-05-06 19:59 | 54.04584 | 10.85681 | 33311 ft | 435 kts | 200° |
| 2026-05-06 19:59 | 54.01720 | 10.84059 | 33617 ft | 434 kts | 200° |
| 2026-05-06 20:00 | 53.98854 | 10.82438 | 33889 ft | 433 kts | 200° |
| 2026-05-06 20:00 | 53.95997 | 10.80826 | 34085 ft | 433 kts | 200° |
| 2026-05-06 20:00 | 53.93143 | 10.79217 | 34276 ft | 433 kts | 200° |
| 2026-05-06 20:00 | 53.90319 | 10.77627 | 34492 ft | 432 kts | 200° |
| 2026-05-06 20:01 | 53.87469 | 10.76025 | 34706 ft | 432 kts | 200° |
| 2026-05-06 20:01 | 53.84610 | 10.74421 | 34879 ft | 432 kts | 200° |
| 2026-05-06 20:01 | 53.81757 | 10.72822 | 35070 ft | 432 kts | 200° |
| 2026-05-06 20:01 | 53.78913 | 10.71231 | 35284 ft | 431 kts | 200° |
| 2026-05-06 20:02 | 53.76064 | 10.69639 | 35465 ft | 430 kts | 200° |
| 2026-05-06 20:02 | 53.73248 | 10.68068 | 35735 ft | 425 kts | 200° |
| 2026-05-06 20:02 | 53.70499 | 10.66540 | 36100 ft | 411 kts | 200° |
| 2026-05-06 20:02 | 53.67801 | 10.65041 | 36002 ft | 404 kts | 200° |
| 2026-05-06 20:03 | 53.62625 | 10.62169 | 35968 ft | 384 kts | 200° |
| 2026-05-06 20:03 | 53.60118 | 10.60781 | 35900 ft | 373 kts | 200° |
| 2026-05-06 20:03 | 53.57684 | 10.59434 | 35886 ft | 363 kts | 200° |
| 2026-05-06 20:04 | 53.53013 | 10.56853 | 35875 ft | 344 kts | 200° |
| 2026-05-06 20:04 | 53.48576 | 10.54407 | 35871 ft | 328 kts | 200° |
| 2026-05-06 20:05 | 53.44370 | 10.52092 | 35876 ft | 313 kts | 200° |
| 2026-05-06 20:05 | 53.40318 | 10.49867 | 35878 ft | 299 kts | 201° |
| 2026-05-06 20:06 | 53.38357 | 10.48792 | 35862 ft | 293 kts | 201° |
| 2026-05-06 20:06 | 53.36442 | 10.47743 | 35864 ft | 286 kts | 201° |
| 2026-05-06 20:06 | 53.34575 | 10.46721 | 35869 ft | 279 kts | 201° |
| 2026-05-06 20:06 | 53.32749 | 10.45723 | 35859 ft | 272 kts | 201° |
| 2026-05-06 20:07 | 53.31000 | 10.44768 | 35867 ft | 265 kts | 201° |
| 2026-05-06 20:07 | 53.29272 | 10.43826 | 35849 ft | 257 kts | 201° |
| 2026-05-06 20:07 | 53.27593 | 10.42910 | 35762 ft | 252 kts | 201° |
| 2026-05-06 20:07 | 53.25934 | 10.42005 | 35593 ft | 251 kts | 201° |
| 2026-05-06 20:08 | 53.24269 | 10.41096 | 35338 ft | 253 kts | 201° |
| 2026-05-06 20:08 | 53.22585 | 10.40178 | 35091 ft | 255 kts | 201° |
| 2026-05-06 20:08 | 53.20899 | 10.39260 | 34924 ft | 255 kts | 201° |
| 2026-05-06 20:08 | 53.19221 | 10.38349 | 34830 ft | 252 kts | 201° |
| 2026-05-06 20:09 | 53.17572 | 10.37455 | 34739 ft | 248 kts | 201° |
| 2026-05-06 20:09 | 53.15957 | 10.36579 | 34605 ft | 247 kts | 201° |
| 2026-05-06 20:09 | 53.14323 | 10.35693 | 34434 ft | 247 kts | 201° |
| 2026-05-06 20:09 | 53.12687 | 10.34807 | 34250 ft | 248 kts | 201° |
| 2026-05-06 20:10 | 53.11043 | 10.33917 | 34099 ft | 248 kts | 201° |
| 2026-05-06 20:10 | 53.09410 | 10.33035 | 33985 ft | 246 kts | 201° |
| 2026-05-06 20:10 | 53.07786 | 10.32158 | 33887 ft | 244 kts | 201° |
| 2026-05-06 20:10 | 53.06174 | 10.31289 | 33763 ft | 243 kts | 201° |
| 2026-05-06 20:11 | 53.04573 | 10.30425 | 33599 ft | 243 kts | 201° |
| 2026-05-06 20:11 | 53.02985 | 10.29569 | 33425 ft | 243 kts | 201° |
| 2026-05-06 20:11 | 53.01375 | 10.28702 | 33239 ft | 244 kts | 201° |
| 2026-05-06 20:11 | 52.99759 | 10.27832 | 33093 ft | 244 kts | 201° |
| 2026-05-06 20:12 | 52.98145 | 10.26965 | 32969 ft | 243 kts | 201° |
| 2026-05-06 20:12 | 52.96547 | 10.26107 | 32853 ft | 241 kts | 201° |
| 2026-05-06 20:12 | 52.94954 | 10.25252 | 32730 ft | 241 kts | 200° |
| 2026-05-06 20:12 | 52.93358 | 10.24396 | 32587 ft | 241 kts | 200° |
| 2026-05-06 20:13 | 52.91764 | 10.23542 | 32445 ft | 241 kts | 200° |
| 2026-05-06 20:13 | 52.90186 | 10.22697 | 32316 ft | 241 kts | 200° |
| 2026-05-06 20:13 | 52.88596 | 10.21846 | 32196 ft | 241 kts | 200° |
| 2026-05-06 20:13 | 52.87001 | 10.20994 | 32086 ft | 240 kts | 200° |
| 2026-05-06 20:14 | 52.85412 | 10.20145 | 31972 ft | 239 kts | 200° |
| 2026-05-06 20:14 | 52.83830 | 10.19301 | 31862 ft | 239 kts | 200° |
| 2026-05-06 20:14 | 52.82244 | 10.18455 | 31747 ft | 239 kts | 200° |
| 2026-05-06 20:14 | 52.80664 | 10.17613 | 31631 ft | 239 kts | 200° |
| 2026-05-06 20:15 | 52.79085 | 10.16772 | 31559 ft | 237 kts | 200° |
| 2026-05-06 20:15 | 52.77522 | 10.15941 | 31476 ft | 236 kts | 200° |
| 2026-05-06 20:15 | 52.75980 | 10.15121 | 31377 ft | 236 kts | 200° |
| 2026-05-06 20:15 | 52.74416 | 10.14290 | 31264 ft | 236 kts | 200° |
| 2026-05-06 20:16 | 52.72853 | 10.13460 | 31133 ft | 237 kts | 200° |
| 2026-05-06 20:16 | 52.71284 | 10.12627 | 31038 ft | 236 kts | 200° |
| 2026-05-06 20:16 | 52.69722 | 10.11800 | 30955 ft | 236 kts | 200° |
| 2026-05-06 20:16 | 52.68161 | 10.10973 | 30879 ft | 235 kts | 200° |
| 2026-05-06 20:17 | 52.66603 | 10.10148 | 30804 ft | 235 kts | 200° |
| 2026-05-06 20:17 | 52.65071 | 10.09338 | 30700 ft | 235 kts | 200° |
| 2026-05-06 20:17 | 52.63516 | 10.08516 | 30600 ft | 235 kts | 200° |
| 2026-05-06 20:17 | 52.61956 | 10.07692 | 30517 ft | 235 kts | 200° |
| 2026-05-06 20:18 | 52.60396 | 10.06869 | 30439 ft | 235 kts | 200° |
| 2026-05-06 20:18 | 52.58845 | 10.06051 | 30368 ft | 234 kts | 200° |
| 2026-05-06 20:18 | 52.57293 | 10.05233 | 30286 ft | 234 kts | 200° |
| 2026-05-06 20:18 | 52.55748 | 10.04419 | 30212 ft | 234 kts | 200° |
| 2026-05-06 20:19 | 52.54197 | 10.03603 | 30136 ft | 233 kts | 200° |
| 2026-05-06 20:19 | 52.52655 | 10.02792 | 30064 ft | 233 kts | 200° |
| 2026-05-06 20:19 | 52.51126 | 10.01989 | 29988 ft | 233 kts | 200° |
| 2026-05-06 20:19 | 52.49583 | 10.01179 | 29909 ft | 233 kts | 200° |
| 2026-05-06 20:20 | 52.48036 | 10.00367 | 29843 ft | 233 kts | 200° |
| 2026-05-06 20:20 | 52.46495 | 9.99559 | 29775 ft | 232 kts | 200° |
| 2026-05-06 20:20 | 52.44965 | 9.98758 | 29721 ft | 231 kts | 200° |
| 2026-05-06 20:20 | 52.43430 | 9.97955 | 29633 ft | 231 kts | 200° |
| 2026-05-06 20:21 | 52.41895 | 9.97151 | 29555 ft | 231 kts | 200° |
| 2026-05-06 20:21 | 52.40362 | 9.96350 | 29480 ft | 232 kts | 200° |
| 2026-05-06 20:21 | 52.38842 | 9.95555 | 29399 ft | 232 kts | 200° |
| 2026-05-06 20:21 | 52.37304 | 9.94753 | 29327 ft | 232 kts | 199° |
| 2026-05-06 20:22 | 52.35763 | 9.93948 | 29252 ft | 232 kts | 200° |
| 2026-05-06 20:22 | 52.34225 | 9.93147 | 29174 ft | 232 kts | 200° |
| 2026-05-06 20:22 | 52.32689 | 9.92347 | 29140 ft | 230 kts | 200° |
| 2026-05-06 20:22 | 52.31163 | 9.91552 | 29115 ft | 229 kts | 200° |
| 2026-05-06 20:23 | 52.29667 | 9.90774 | 29057 ft | 228 kts | 200° |
| 2026-05-06 20:23 | 52.28152 | 9.89987 | 28981 ft | 229 kts | 200° |
| 2026-05-06 20:23 | 52.26635 | 9.89199 | 28899 ft | 229 kts | 200° |
| 2026-05-06 20:23 | 52.25111 | 9.88408 | 28833 ft | 230 kts | 200° |
| 2026-05-06 20:24 | 52.23593 | 9.87621 | 28783 ft | 229 kts | 200° |
| 2026-05-06 20:24 | 52.22074 | 9.86834 | 28745 ft | 228 kts | 200° |
| 2026-05-06 20:24 | 52.20566 | 9.86053 | 28696 ft | 228 kts | 200° |
| 2026-05-06 20:24 | 52.19054 | 9.85269 | 28633 ft | 228 kts | 200° |
| 2026-05-06 20:25 | 52.17561 | 9.84497 | 28573 ft | 228 kts | 200° |
| 2026-05-06 20:25 | 52.16053 | 9.83717 | 28514 ft | 228 kts | 200° |
| 2026-05-06 20:25 | 52.14541 | 9.82935 | 28463 ft | 228 kts | 200° |
| 2026-05-06 20:25 | 52.13036 | 9.82157 | 28425 ft | 227 kts | 200° |
| 2026-05-06 20:26 | 52.11529 | 9.81380 | 28384 ft | 227 kts | 200° |
| 2026-05-06 20:26 | 52.10028 | 9.80606 | 28340 ft | 226 kts | 199° |
| 2026-05-06 20:26 | 52.08534 | 9.79836 | 28299 ft | 226 kts | 199° |
| 2026-05-06 20:26 | 52.07036 | 9.79064 | 28251 ft | 226 kts | 199° |
| 2026-05-06 20:27 | 52.05537 | 9.78292 | 28198 ft | 226 kts | 199° |
| 2026-05-06 20:27 | 52.04043 | 9.77523 | 28156 ft | 226 kts | 199° |
| 2026-05-06 20:27 | 52.02566 | 9.76764 | 28120 ft | 225 kts | 199° |
| 2026-05-06 20:27 | 52.01076 | 9.75998 | 28075 ft | 225 kts | 199° |
| 2026-05-06 20:28 | 51.99582 | 9.75231 | 28036 ft | 225 kts | 199° |
| 2026-05-06 20:28 | 51.98088 | 9.74464 | 27977 ft | 225 kts | 199° |
| 2026-05-06 20:28 | 51.96600 | 9.73701 | 27951 ft | 225 kts | 199° |
| 2026-05-06 20:28 | 51.95107 | 9.72937 | 27916 ft | 225 kts | 199° |
| 2026-05-06 20:29 | 51.93621 | 9.72176 | 27878 ft | 224 kts | 199° |
| 2026-05-06 20:29 | 51.92132 | 9.71414 | 27843 ft | 224 kts | 199° |
| 2026-05-06 20:29 | 51.90643 | 9.70653 | 27813 ft | 224 kts | 199° |
| 2026-05-06 20:29 | 51.89159 | 9.69895 | 27778 ft | 224 kts | 199° |
| 2026-05-06 20:30 | 51.87691 | 9.69145 | 27745 ft | 224 kts | 199° |
| 2026-05-06 20:30 | 51.84742 | 9.67641 | 27732 ft | 221 kts | 199° |
| 2026-05-06 20:30 | 51.83277 | 9.66895 | 27697 ft | 221 kts | 199° |
| 2026-05-06 20:31 | 51.81804 | 9.66144 | 27650 ft | 222 kts | 199° |
| 2026-05-06 20:31 | 51.80326 | 9.65392 | 27605 ft | 223 kts | 199° |
| 2026-05-06 20:31 | 51.78852 | 9.64642 | 27574 ft | 222 kts | 199° |
| 2026-05-06 20:31 | 51.77376 | 9.63893 | 27553 ft | 222 kts | 199° |
| 2026-05-06 20:32 | 51.75904 | 9.63145 | 27536 ft | 221 kts | 199° |
| 2026-05-06 20:32 | 51.74458 | 9.62411 | 27510 ft | 221 kts | 199° |
| 2026-05-06 20:32 | 51.72989 | 9.61666 | 27478 ft | 221 kts | 199° |
| 2026-05-06 20:32 | 51.71521 | 9.60922 | 27449 ft | 222 kts | 199° |
| 2026-05-06 20:33 | 51.70048 | 9.60176 | 27433 ft | 222 kts | 199° |
| 2026-05-06 20:33 | 51.68576 | 9.59431 | 27411 ft | 221 kts | 199° |
| 2026-05-06 20:33 | 51.67111 | 9.58691 | 27401 ft | 221 kts | 199° |
| 2026-05-06 20:33 | 51.65644 | 9.57949 | 27386 ft | 221 kts | 199° |
| 2026-05-06 20:34 | 51.64187 | 9.57213 | 27407 ft | 218 kts | 200° |
| 2026-05-06 20:34 | 51.62747 | 9.56487 | 27468 ft | 215 kts | 200° |
| 2026-05-06 20:34 | 51.61343 | 9.55779 | 27477 ft | 214 kts | 200° |
| 2026-05-06 20:34 | 51.59922 | 9.55063 | 27420 ft | 215 kts | 200° |
| 2026-05-06 20:35 | 51.58483 | 9.54337 | 27348 ft | 217 kts | 200° |
| 2026-05-06 20:35 | 51.57039 | 9.53610 | 27324 ft | 218 kts | 200° |
| 2026-05-06 20:35 | 51.55592 | 9.52882 | 27319 ft | 217 kts | 200° |
| 2026-05-06 20:35 | 51.54153 | 9.52159 | 27340 ft | 216 kts | 200° |
| 2026-05-06 20:36 | 51.52725 | 9.51442 | 27342 ft | 215 kts | 200° |
| 2026-05-06 20:36 | 51.51312 | 9.50733 | 27304 ft | 216 kts | 200° |
| 2026-05-06 20:36 | 51.49862 | 9.50005 | 27272 ft | 216 kts | 200° |
| 2026-05-06 20:36 | 51.48440 | 9.49292 | 27249 ft | 217 kts | 200° |
| 2026-05-06 20:37 | 51.47291 | 9.48716 | 27245 ft | 216 kts | 200° |